Time;durP1;ratioP1;P1;durP2;ratioP2;P2;SDS_P1;SDS_P2;PMS_P1;PMS_P2;Temp;Humidity;BMP_temperature;BMP_pressure;BME280_temperature;BME280_humidity;BME280_pressure;Samples;Min_cycle;Max_cycle;Signal;HPM_P1;HPM_P2
2022/02/24 00:02:01;;;;;;;12.85;4.40;;;10.20;99.90;;;;;;5086552;28;20033;-79
2022/02/24 00:04:27;;;;;;;12.48;3.75;;;10.20;99.90;;;;;;5084969;28;20020;-79
2022/02/24 00:06:53;;;;;;;12.27;4.25;;;10.10;99.90;;;;;;5082463;28;20127;-79
2022/02/24 00:09:20;;;;;;;15.35;4.00;;;10.10;99.90;;;;;;5087263;28;20012;-79
2022/02/24 00:11:46;;;;;;;16.20;4.10;;;10.00;99.90;;;;;;5086278;28;20370;-79
2022/02/24 00:14:11;;;;;;;15.35;4.40;;;10.10;99.90;;;;;;5087401;28;20024;-79
2022/02/24 00:16:37;;;;;;;12.88;3.72;;;10.10;99.90;;;;;;5082561;28;20035;-79
2022/02/24 00:19:03;;;;;;;17.08;4.70;;;10.00;99.90;;;;;;5085548;28;20031;-79
2022/02/24 00:21:28;;;;;;;15.07;4.68;;;10.10;99.90;;;;;;5088726;28;20091;-78
2022/02/24 00:23:54;;;;;;;15.63;4.22;;;10.10;99.90;;;;;;5092870;28;20111;-78
2022/02/24 00:26:20;;;;;;;14.90;4.55;;;10.10;99.90;;;;;;5087739;28;20032;-78
2022/02/24 00:28:46;;;;;;;13.63;4.65;;;10.10;99.90;;;;;;5079295;28;20028;-79
2022/02/24 00:31:11;;;;;;;13.70;4.05;;;10.10;99.90;;;;;;5088470;28;20499;-79
2022/02/24 00:33:40;;;;;;;10.80;4.53;;;10.00;99.90;;;;;;5083455;28;20025;-79
2022/02/24 00:36:07;;;;;;;12.73;4.10;;;10.10;99.90;;;;;;5085960;28;20020;-79
2022/02/24 00:38:33;;;;;;;14.45;4.38;;;10.10;99.90;;;;;;5088459;28;20115;-79
2022/02/24 00:41:05;;;;;;;14.02;5.63;;;10.00;99.90;;;;;;5087761;28;20035;-79
2022/02/24 00:43:30;;;;;;;14.82;4.53;;;10.00;99.90;;;;;;5084297;28;20036;-79
2022/02/24 00:45:56;;;;;;;12.88;4.40;;;10.00;99.90;;;;;;5089416;28;20098;-79
2022/02/24 00:48:22;;;;;;;11.45;3.72;;;9.90;99.90;;;;;;5084080;28;20486;-79
2022/02/24 00:50:48;;;;;;;11.23;3.72;;;9.90;99.90;;;;;;5089987;28;20028;-78
2022/02/24 00:53:13;;;;;;;13.02;4.07;;;9.90;99.90;;;;;;5092806;28;20031;-79
2022/02/24 00:55:39;;;;;;;12.85;4.22;;;9.90;99.90;;;;;;5093349;28;20020;-78
2022/02/24 00:58:04;;;;;;;13.32;3.85;;;9.90;99.90;;;;;;5094071;28;20024;-78
2022/02/24 01:00:30;;;;;;;12.18;4.28;;;9.90;99.90;;;;;;5084366;28;20024;-79
2022/02/24 01:02:56;;;;;;;10.50;4.03;;;10.00;99.90;;;;;;5090616;28;20044;-78
2022/02/24 01:05:22;;;;;;;14.57;3.78;;;10.00;99.90;;;;;;5086860;28;20031;-78
2022/02/24 01:07:48;;;;;;;13.93;3.95;;;10.00;99.90;;;;;;5087172;28;20032;-78
2022/02/24 01:10:14;;;;;;;12.07;3.45;;;10.10;99.90;;;;;;5091294;28;20031;-78
2022/02/24 01:12:39;;;;;;;11.30;3.80;;;10.00;99.90;;;;;;5087746;28;20393;-78
2022/02/24 01:15:07;;;;;;;16.90;4.10;;;10.00;99.90;;;;;;5093955;28;20110;-78
2022/02/24 01:17:34;;;;;;;15.88;4.10;;;10.00;99.90;;;;;;5090376;28;20030;-78
2022/02/24 01:20:00;;;;;;;16.60;4.35;;;10.10;99.90;;;;;;5092098;28;20031;-78
2022/02/24 01:22:26;;;;;;;13.63;4.10;;;10.10;99.90;;;;;;5091415;28;20036;-78
2022/02/24 01:24:52;;;;;;;18.83;4.65;;;10.00;99.90;;;;;;5092630;28;20027;-78
2022/02/24 01:27:19;;;;;;;11.88;4.03;;;10.00;99.90;;;;;;5084976;28;20380;-78
2022/02/24 01:29:44;;;;;;;13.40;4.13;;;10.10;99.90;;;;;;5089776;28;20060;-78
2022/02/24 01:32:10;;;;;;;17.92;4.25;;;10.10;99.90;;;;;;5088230;28;20501;-78
2022/02/24 01:34:36;;;;;;;15.00;4.32;;;10.10;99.90;;;;;;5089341;28;20032;-78
2022/02/24 01:37:02;;;;;;;20.20;4.72;;;10.10;99.90;;;;;;5093646;28;20024;-78
2022/02/24 01:39:28;;;;;;;15.15;4.25;;;10.20;99.90;;;;;;5092426;28;20032;-77
2022/02/24 01:41:55;;;;;;;13.63;3.92;;;10.20;99.90;;;;;;5092033;28;20041;-77
2022/02/24 01:44:22;;;;;;;19.02;4.30;;;10.20;99.90;;;;;;5087081;28;20020;-77
2022/02/24 01:46:48;;;;;;;16.75;4.13;;;10.20;99.90;;;;;;5093563;28;20023;-77
2022/02/24 01:49:14;;;;;;;19.67;4.45;;;10.20;99.90;;;;;;5086133;28;20028;-78
2022/02/24 01:51:41;;;;;;;12.43;4.18;;;10.20;99.90;;;;;;5089890;28;20020;-78
2022/02/24 01:54:07;;;;;;;16.63;4.57;;;10.20;99.90;;;;;;5089394;28;20457;-79
2022/02/24 01:56:34;;;;;;;18.67;4.30;;;10.20;99.90;;;;;;5089459;28;20024;-79
2022/02/24 01:59:00;;;;;;;12.45;4.43;;;10.10;99.90;;;;;;5092122;28;20017;-77
2022/02/24 02:01:26;;;;;;;18.90;4.93;;;10.10;99.90;;;;;;5094916;28;20084;-78
2022/02/24 02:03:54;;;;;;;12.60;4.18;;;10.20;99.90;;;;;;5091270;28;20028;-78
2022/02/24 02:06:20;;;;;;;16.98;4.13;;;10.20;99.90;;;;;;5091677;28;20059;-78
2022/02/24 02:08:46;;;;;;;13.63;4.03;;;10.20;99.90;;;;;;5086945;28;20457;-78
2022/02/24 02:11:12;;;;;;;14.23;3.78;;;10.20;99.90;;;;;;5086488;28;20056;-79
2022/02/24 02:13:38;;;;;;;11.00;3.83;;;10.10;99.90;;;;;;5089725;28;20055;-79
2022/02/24 02:16:04;;;;;;;16.30;4.07;;;10.10;99.90;;;;;;5084578;28;20107;-79
2022/02/24 02:18:29;;;;;;;19.33;4.28;;;10.10;99.90;;;;;;5090378;28;20472;-78
2022/02/24 02:20:56;;;;;;;12.35;4.18;;;10.10;99.90;;;;;;5084050;28;20031;-79
2022/02/24 02:23:21;;;;;;;13.32;3.65;;;10.10;99.90;;;;;;5091306;28;20096;-79
2022/02/24 02:25:47;;;;;;;12.57;3.65;;;10.10;99.90;;;;;;5083398;28;20048;-78
2022/02/24 02:28:16;;;;;;;14.38;4.10;;;10.10;99.90;;;;;;5090448;28;20028;-79
2022/02/24 02:30:43;;;;;;;15.10;4.38;;;10.10;99.90;;;;;;5084664;28;20029;-78
2022/02/24 02:33:09;;;;;;;13.00;4.38;;;10.10;99.90;;;;;;5091852;28;20440;-78
2022/02/24 02:35:36;;;;;;;12.18;3.13;;;10.10;99.90;;;;;;5086669;28;20058;-78
2022/02/24 02:38:02;;;;;;;12.30;3.95;;;10.10;99.90;;;;;;5086468;28;20376;-79
2022/02/24 02:40:28;;;;;;;10.43;3.33;;;10.00;99.90;;;;;;5091245;28;20040;-78
2022/02/24 02:42:54;;;;;;;14.13;3.92;;;10.00;99.90;;;;;;5086223;28;20032;-78
2022/02/24 02:45:20;;;;;;;15.00;4.30;;;10.00;99.90;;;;;;5091800;28;20382;-78
2022/02/24 02:47:46;;;;;;;16.63;3.95;;;10.10;99.90;;;;;;5094322;28;20032;-78
2022/02/24 02:50:13;;;;;;;14.32;3.53;;;10.00;99.90;;;;;;5086924;28;20031;-79
2022/02/24 02:52:39;;;;;;;12.60;4.38;;;10.10;99.90;;;;;;5092458;28;20024;-79
2022/02/24 02:55:10;;;;;;;12.93;3.70;;;10.10;99.90;;;;;;5086524;28;20389;-78
2022/02/24 02:57:37;;;;;;;13.30;4.00;;;10.00;99.90;;;;;;5087158;28;20436;-78
2022/02/24 03:00:08;;;;;;;16.73;4.05;;;10.00;99.90;;;;;;5090706;28;20024;-78
2022/02/24 03:02:34;;;;;;;10.23;3.28;;;10.00;99.90;;;;;;5083495;28;20039;-79
2022/02/24 03:05:00;;;;;;;12.10;3.35;;;9.90;99.90;;;;;;5084911;28;20032;-78
2022/02/24 03:07:26;;;;;;;10.23;3.45;;;9.90;99.90;;;;;;5092790;28;20027;-78
2022/02/24 03:09:52;;;;;;;15.65;3.75;;;10.00;99.90;;;;;;5088529;28;20376;-78
2022/02/24 03:12:18;;;;;;;19.48;4.03;;;10.00;99.90;;;;;;5084974;28;20448;-79
2022/02/24 03:14:45;;;;;;;9.73;3.78;;;9.90;99.90;;;;;;5088563;28;20016;-78
2022/02/24 03:17:11;;;;;;;15.73;4.13;;;10.00;99.90;;;;;;5085760;28;20028;-78
2022/02/24 03:19:37;;;;;;;13.93;3.97;;;9.90;99.90;;;;;;5089846;28;20016;-78
2022/02/24 03:22:07;;;;;;;12.57;3.03;;;9.90;99.90;;;;;;5090313;28;20036;-78
2022/02/24 03:24:33;;;;;;;10.45;3.70;;;9.90;99.90;;;;;;5081417;28;20021;-78
2022/02/24 03:26:58;;;;;;;9.68;3.22;;;9.80;99.90;;;;;;5091330;28;20550;-78
2022/02/24 03:29:24;;;;;;;16.17;3.97;;;9.80;99.90;;;;;;5084529;28;20024;-78
2022/02/24 03:31:49;;;;;;;10.15;3.30;;;9.80;99.90;;;;;;5089715;28;20481;-78
2022/02/24 03:34:15;;;;;;;12.98;2.95;;;9.80;99.90;;;;;;5084809;28;20140;-78
2022/02/24 03:36:41;;;;;;;12.38;3.35;;;9.90;99.90;;;;;;5088295;28;20103;-78
2022/02/24 03:39:06;;;;;;;17.73;4.20;;;9.80;99.90;;;;;;5085726;28;20032;-78
2022/02/24 03:41:32;;;;;;;17.50;3.47;;;9.80;99.90;;;;;;5084408;28;20051;-78
2022/02/24 03:43:58;;;;;;;13.32;3.78;;;9.80;99.90;;;;;;5090560;28;20020;-79
2022/02/24 03:46:24;;;;;;;13.07;3.10;;;9.80;99.90;;;;;;5081462;28;20027;-79
2022/02/24 03:48:50;;;;;;;19.65;3.72;;;9.80;99.90;;;;;;5088421;28;20103;-79
2022/02/24 03:51:16;;;;;;;16.58;3.50;;;9.80;99.90;;;;;;5081376;28;20389;-79
2022/02/24 03:53:42;;;;;;;15.45;2.95;;;9.70;99.90;;;;;;5081404;28;20024;-79
2022/02/24 03:56:08;;;;;;;13.95;3.25;;;9.80;99.90;;;;;;5087565;28;20031;-78
2022/02/24 03:58:34;;;;;;;14.95;3.10;;;9.80;99.90;;;;;;5089673;28;20073;-78
2022/02/24 04:00:59;;;;;;;10.75;2.97;;;9.70;99.90;;;;;;5090244;28;20028;-79
2022/02/24 04:03:25;;;;;;;13.05;3.85;;;9.80;99.90;;;;;;5083965;28;20024;-79
2022/02/24 04:05:51;;;;;;;11.45;3.22;;;9.90;99.90;;;;;;5081769;28;20400;-79
2022/02/24 04:08:17;;;;;;;13.15;3.25;;;9.90;99.90;;;;;;5089468;28;20032;-79
2022/02/24 04:10:43;;;;;;;11.68;3.08;;;9.80;99.90;;;;;;5089494;28;20024;-79
2022/02/24 04:13:08;;;;;;;11.35;3.75;;;9.80;99.90;;;;;;5085188;28;20032;-79
2022/02/24 04:15:36;;;;;;;14.52;3.42;;;9.80;99.90;;;;;;5090296;28;20020;-79
2022/02/24 04:18:03;;;;;;;14.30;3.22;;;9.90;99.90;;;;;;5089226;28;20028;-79
2022/02/24 04:20:29;;;;;;;15.50;3.20;;;9.90;99.90;;;;;;5089803;28;20012;-79
2022/02/24 04:22:54;;;;;;;16.42;4.00;;;9.90;99.90;;;;;;5090971;28;20059;-78
2022/02/24 04:25:21;;;;;;;13.93;2.95;;;9.90;99.90;;;;;;5088492;28;20069;-78
2022/02/24 04:27:49;;;;;;;15.57;4.47;;;9.80;99.90;;;;;;5087303;28;20039;-78
2022/02/24 04:30:17;;;;;;;12.98;3.53;;;9.80;99.90;;;;;;5084451;28;20016;-78
2022/02/24 04:32:43;;;;;;;13.68;3.20;;;9.90;99.90;;;;;;5087917;28;20039;-78
2022/02/24 04:35:10;;;;;;;21.33;3.63;;;9.90;99.90;;;;;;5085244;28;20380;-78
2022/02/24 04:37:36;;;;;;;11.65;2.88;;;9.90;99.90;;;;;;5086382;28;20078;-78
2022/02/24 04:40:07;;;;;;;12.90;3.40;;;9.80;99.90;;;;;;5090294;28;20017;-77
2022/02/24 04:42:33;;;;;;;9.85;3.47;;;9.70;99.90;;;;;;5089795;28;20047;-78
2022/02/24 04:44:58;;;;;;;13.70;3.47;;;9.80;99.90;;;;;;5088419;28;20066;-78
2022/02/24 04:47:25;;;;;;;7.88;3.00;;;9.80;99.90;;;;;;5089157;28;20117;-78
2022/02/24 04:49:51;;;;;;;14.02;3.55;;;9.80;99.90;;;;;;5080275;28;20016;-78
2022/02/24 04:52:17;;;;;;;17.38;3.80;;;9.70;99.90;;;;;;5088044;28;20031;-78
2022/02/24 04:54:43;;;;;;;14.18;3.17;;;9.70;99.90;;;;;;5087437;28;20078;-78
2022/02/24 04:57:08;;;;;;;15.90;3.95;;;9.70;99.90;;;;;;5087189;28;20064;-78
2022/02/24 04:59:34;;;;;;;12.48;3.30;;;9.60;99.90;;;;;;5087649;28;20021;-78
2022/02/24 05:02:00;;;;;;;10.63;4.00;;;9.60;99.90;;;;;;5085571;28;20043;-78
2022/02/24 05:04:26;;;;;;;13.57;3.63;;;9.50;99.90;;;;;;5085508;28;20027;-78
2022/02/24 05:06:51;;;;;;;16.13;4.35;;;9.50;99.90;;;;;;5089139;28;20024;-78
2022/02/24 05:09:17;;;;;;;14.02;3.97;;;9.60;99.90;;;;;;5092048;28;20031;-78
2022/02/24 05:11:43;;;;;;;16.30;3.80;;;9.50;99.90;;;;;;5090306;28;20028;-78
2022/02/24 05:14:08;;;;;;;9.63;3.67;;;9.50;99.90;;;;;;5086246;28;20029;-79
2022/02/24 05:16:34;;;;;;;13.15;3.97;;;9.40;99.90;;;;;;5089748;28;20024;-78
2022/02/24 05:19:00;;;;;;;12.43;4.13;;;9.50;99.90;;;;;;5084686;28;20028;-80
2022/02/24 05:21:26;;;;;;;18.17;4.03;;;9.50;99.90;;;;;;5089529;28;20035;-78
2022/02/24 05:23:52;;;;;;;13.82;4.10;;;9.50;99.90;;;;;;5085369;28;20024;-78
2022/02/24 05:26:19;;;;;;;10.52;3.83;;;9.50;99.90;;;;;;5091743;28;20032;-77
2022/02/24 05:28:45;;;;;;;14.15;3.85;;;9.50;99.90;;;;;;5082915;28;20461;-78
2022/02/24 05:31:11;;;;;;;18.33;4.07;;;9.50;99.90;;;;;;5088149;28;20028;-78
2022/02/24 05:33:37;;;;;;;14.95;3.33;;;9.60;99.90;;;;;;5093488;28;20024;-79
2022/02/24 05:36:05;;;;;;;14.57;3.40;;;9.50;99.90;;;;;;5093245;28;20020;-79
2022/02/24 05:38:30;;;;;;;11.38;3.60;;;9.50;99.90;;;;;;5087265;28;20093;-78
2022/02/24 05:40:57;;;;;;;16.15;3.47;;;9.50;99.90;;;;;;5092429;28;20036;-79
2022/02/24 05:43:23;;;;;;;8.75;2.90;;;9.40;99.90;;;;;;5093154;28;20508;-78
2022/02/24 05:45:49;;;;;;;10.30;2.85;;;9.50;99.90;;;;;;5086763;28;20055;-78
2022/02/24 05:48:14;;;;;;;11.60;3.65;;;9.50;99.90;;;;;;5087183;28;20028;-78
2022/02/24 05:50:40;;;;;;;13.07;3.10;;;9.50;99.90;;;;;;5090433;28;20107;-78
2022/02/24 05:53:06;;;;;;;14.02;3.63;;;9.40;99.90;;;;;;5090827;28;20028;-78
2022/02/24 05:55:33;;;;;;;14.30;3.42;;;9.40;99.90;;;;;;5094873;28;20065;-78
2022/02/24 05:57:58;;;;;;;10.45;3.25;;;9.40;99.90;;;;;;5091522;28;20168;-78
2022/02/24 06:00:24;;;;;;;13.25;4.07;;;9.40;99.90;;;;;;5087549;28;20411;-79
2022/02/24 06:02:50;;;;;;;12.07;3.72;;;9.30;99.90;;;;;;5090966;28;20036;-78
2022/02/24 06:05:16;;;;;;;13.25;3.45;;;9.30;99.90;;;;;;5088869;28;20032;-78
2022/02/24 06:07:42;;;;;;;14.10;4.10;;;9.30;99.90;;;;;;5088134;28;20043;-77
2022/02/24 06:10:10;;;;;;;14.93;3.65;;;9.30;99.90;;;;;;5087898;28;20469;-77
2022/02/24 06:12:35;;;;;;;9.88;3.22;;;9.20;99.90;;;;;;5093136;28;20043;-78
2022/02/24 06:15:02;;;;;;;17.77;3.22;;;9.20;99.90;;;;;;5087505;28;20024;-78
2022/02/24 06:17:28;;;;;;;14.50;3.85;;;9.20;99.90;;;;;;5088904;28;20028;-78
2022/02/24 06:19:54;;;;;;;12.43;3.28;;;9.10;99.90;;;;;;5088990;28;20035;-78
2022/02/24 06:22:19;;;;;;;12.38;2.90;;;9.10;99.90;;;;;;5088348;28;20068;-77
2022/02/24 06:24:45;;;;;;;14.32;4.00;;;9.10;99.90;;;;;;5090993;28;20024;-78
2022/02/24 06:27:11;;;;;;;9.10;3.40;;;9.10;99.90;;;;;;5091889;28;20043;-77
2022/02/24 06:29:37;;;;;;;11.93;3.58;;;9.00;99.90;;;;;;5087744;28;20077;-78
2022/02/24 06:32:03;;;;;;;14.45;3.50;;;9.00;99.90;;;;;;5087892;28;20028;-77
2022/02/24 06:34:30;;;;;;;4.88;2.72;;;9.10;99.90;;;;;;5085977;28;20118;-77
2022/02/24 06:36:56;;;;;;;14.52;3.17;;;9.00;99.90;;;;;;5090339;28;20056;-77
2022/02/24 06:39:22;;;;;;;13.30;2.88;;;8.90;99.90;;;;;;5090921;28;20016;-78
2022/02/24 06:41:48;;;;;;;14.30;3.88;;;8.90;99.90;;;;;;5087259;28;20046;-78
2022/02/24 06:44:14;;;;;;;12.68;3.15;;;8.90;99.90;;;;;;5089613;28;20024;-78
2022/02/24 06:46:41;;;;;;;10.15;3.50;;;8.90;99.90;;;;;;5089317;28;20052;-78
2022/02/24 06:49:07;;;;;;;13.57;6.10;;;8.90;99.90;;;;;;5088957;28;20024;-78
2022/02/24 06:51:33;;;;;;;19.23;4.07;;;8.80;99.90;;;;;;5083416;28;20035;-76
2022/02/24 06:53:59;;;;;;;16.52;3.92;;;8.80;99.90;;;;;;5091067;28;20024;-77
2022/02/24 06:56:25;;;;;;;11.57;3.53;;;8.70;99.90;;;;;;5087847;28;20071;-79
2022/02/24 06:58:51;;;;;;;9.15;3.08;;;8.80;99.90;;;;;;5086335;28;20056;-78
2022/02/24 07:01:17;;;;;;;11.32;3.05;;;8.80;99.90;;;;;;5087482;28;20040;-78
2022/02/24 07:03:43;;;;;;;7.40;2.85;;;8.80;99.90;;;;;;5084546;28;20090;-77
2022/02/24 07:06:10;;;;;;;13.52;2.75;;;8.70;99.90;;;;;;5090502;28;20494;-78
2022/02/24 07:08:36;;;;;;;8.50;2.28;;;8.70;99.90;;;;;;5085926;28;20024;-77
2022/02/24 07:11:04;;;;;;;13.82;3.00;;;8.70;99.90;;;;;;5085082;28;20032;-76
2022/02/24 07:13:30;;;;;;;8.50;2.08;;;8.70;99.90;;;;;;5085574;28;20028;-79
2022/02/24 07:15:56;;;;;;;12.18;2.50;;;8.70;99.90;;;;;;5089935;28;20104;-79
2022/02/24 07:18:21;;;;;;;13.82;2.67;;;8.70;99.90;;;;;;5089030;28;20055;-79
2022/02/24 07:20:47;;;;;;;7.75;2.25;;;8.70;99.90;;;;;;5083656;28;20042;-81
2022/02/24 07:23:13;;;;;;;14.93;3.38;;;8.70;99.90;;;;;;5089318;28;20036;-80
2022/02/24 07:25:39;;;;;;;8.88;2.60;;;8.70;99.90;;;;;;5088409;28;20024;-81
2022/02/24 07:28:07;;;;;;;8.23;2.53;;;8.80;99.90;;;;;;5086611;28;20032;-79
2022/02/24 07:30:36;;;;;;;12.48;2.70;;;8.70;99.90;;;;;;5087398;28;20045;-80
2022/02/24 07:33:02;;;;;;;11.25;2.53;;;8.70;99.90;;;;;;5085096;28;20484;-80
2022/02/24 07:35:28;;;;;;;11.02;2.33;;;8.80;99.90;;;;;;5090478;28;20028;-81
2022/02/24 07:37:54;;;;;;;12.65;2.85;;;8.90;99.90;;;;;;5082668;28;20073;-81
2022/02/24 07:40:20;;;;;;;11.07;2.55;;;9.00;99.90;;;;;;5089603;28;20020;-80
2022/02/24 07:42:45;;;;;;;14.52;2.30;;;9.00;99.90;;;;;;5084158;28;20055;-79
2022/02/24 07:45:12;;;;;;;14.00;2.80;;;8.90;99.90;;;;;;5084796;28;20028;-81
2022/02/24 07:47:38;;;;;;;8.55;2.53;;;9.00;99.90;;;;;;5089081;28;20066;-81
2022/02/24 07:50:05;;;;;;;10.50;2.63;;;9.10;99.90;;;;;;5086311;28;20024;-81
2022/02/24 07:52:31;;;;;;;8.68;2.75;;;9.20;99.90;;;;;;5085989;28;20030;-82
2022/02/24 07:54:56;;;;;;;11.93;2.80;;;9.30;99.90;;;;;;5086641;28;20111;-81
2022/02/24 07:57:22;;;;;;;17.95;3.08;;;9.30;99.90;;;;;;5086217;28;20024;-81
2022/02/24 07:59:48;;;;;;;14.20;3.15;;;9.30;99.90;;;;;;5082052;28;20033;-81
2022/02/24 08:02:14;;;;;;;14.75;2.97;;;9.40;99.90;;;;;;5085924;28;20031;-81
2022/02/24 08:04:40;;;;;;;11.75;3.22;;;9.40;99.90;;;;;;5085555;28;20027;-80
2022/02/24 08:07:05;;;;;;;14.23;3.40;;;9.50;99.90;;;;;;5087039;28;20056;-81
2022/02/24 08:09:31;;;;;;;10.65;2.83;;;9.50;99.90;;;;;;5083701;28;20028;-81
2022/02/24 08:14:41;;;;;;;13.98;3.33;;;9.60;99.90;;;;;;5086350;28;20048;-80
2022/02/24 08:17:07;;;;;;;13.52;3.55;;;9.60;99.90;;;;;;5085286;28;20029;-80
2022/02/24 08:19:34;;;;;;;13.73;3.80;;;9.70;99.90;;;;;;5088995;28;20024;-79
2022/02/24 08:22:01;;;;;;;14.75;3.03;;;9.70;99.90;;;;;;5083666;28;20028;-80
2022/02/24 08:24:26;;;;;;;13.68;2.97;;;9.70;99.90;;;;;;5083275;28;20107;-82
2022/02/24 08:26:52;;;;;;;10.48;3.75;;;9.70;99.90;;;;;;5080069;28;20107;-79
2022/02/24 08:29:18;;;;;;;11.88;3.45;;;9.80;99.90;;;;;;5086687;28;20099;-80
2022/02/24 08:31:44;;;;;;;9.02;3.15;;;9.90;99.90;;;;;;5086988;28;20035;-81
2022/02/24 08:34:10;;;;;;;13.13;3.05;;;9.90;99.90;;;;;;5086029;28;20468;-81
2022/02/24 08:36:36;;;;;;;11.52;3.13;;;9.90;99.90;;;;;;5086693;28;20032;-80
2022/02/24 08:39:04;;;;;;;15.30;3.25;;;10.10;99.90;;;;;;5086343;28;20043;-81
2022/02/24 08:41:31;;;;;;;13.60;3.13;;;10.10;99.90;;;;;;5085151;28;20030;-80
2022/02/24 08:43:57;;;;;;;9.35;3.05;;;10.00;99.90;;;;;;5083558;28;20036;-81
2022/02/24 08:46:23;;;;;;;16.05;3.42;;;10.00;99.90;;;;;;5088015;28;20027;-80
2022/02/24 08:48:48;;;;;;;12.40;3.35;;;10.00;99.90;;;;;;5087635;28;20032;-82
2022/02/24 08:51:14;;;;;;;14.30;3.40;;;10.10;99.90;;;;;;5082583;28;20020;-81
2022/02/24 08:53:39;;;;;;;12.10;3.22;;;10.20;99.90;;;;;;5086009;28;20477;-83
2022/02/24 08:56:05;;;;;;;15.35;3.13;;;10.30;99.90;;;;;;5087308;28;20020;-82
2022/02/24 08:58:31;;;;;;;13.10;3.03;;;10.30;99.90;;;;;;5086278;28;20024;-82
2022/02/24 09:00:56;;;;;;;13.40;3.03;;;10.30;99.90;;;;;;5082184;28;20028;-80
2022/02/24 09:03:22;;;;;;;11.10;2.97;;;10.40;99.90;;;;;;5086022;28;20020;-79
2022/02/24 09:05:48;;;;;;;14.02;2.83;;;10.60;99.90;;;;;;5086058;28;20040;-79
2022/02/24 09:08:14;;;;;;;7.18;2.30;;;10.60;99.90;;;;;;5089180;28;20138;-79
2022/02/24 09:10:39;;;;;;;9.57;2.35;;;10.60;99.90;;;;;;5092097;28;20039;-78
2022/02/24 09:13:05;;;;;;;11.95;2.78;;;10.60;99.90;;;;;;5089219;28;20048;-79
2022/02/24 09:15:32;;;;;;;12.73;2.75;;;10.70;99.90;;;;;;5091751;28;20028;-79
2022/02/24 09:17:59;;;;;;;13.52;2.75;;;10.70;99.90;;;;;;5090236;28;20016;-77
2022/02/24 09:20:25;;;;;;;13.40;3.28;;;10.60;99.90;;;;;;5096129;28;20017;-78
2022/02/24 09:22:51;;;;;;;10.50;3.08;;;10.60;99.90;;;;;;5089587;28;20047;-77
2022/02/24 09:25:17;;;;;;;14.45;3.33;;;10.60;99.90;;;;;;5090960;28;20484;-78
2022/02/24 09:27:43;;;;;;;12.73;2.58;;;10.60;99.90;;;;;;5090790;28;20028;-78
2022/02/24 09:30:09;;;;;;;9.18;2.53;;;10.60;99.90;;;;;;5092116;28;20023;-80
2022/02/24 09:32:37;;;;;;;10.40;3.10;;;10.50;99.90;;;;;;5090911;28;20020;-77
2022/02/24 09:35:04;;;;;;;12.27;3.00;;;10.50;99.90;;;;;;5088596;28;20016;-77
2022/02/24 09:37:34;;;;;;;9.48;3.03;;;10.50;99.90;;;;;;5087547;28;20024;-77
2022/02/24 09:40:05;;;;;;;12.23;3.25;;;10.50;99.90;;;;;;5088949;28;20016;-78
2022/02/24 09:42:31;;;;;;;12.23;2.80;;;10.50;99.90;;;;;;5093060;28;20079;-78
2022/02/24 09:44:57;;;;;;;10.27;3.08;;;10.50;99.90;;;;;;5090920;28;20056;-78
2022/02/24 09:47:24;;;;;;;10.07;2.63;;;10.50;99.90;;;;;;5087471;28;20061;-78
2022/02/24 09:49:50;;;;;;;11.00;2.90;;;10.60;99.90;;;;;;5093088;28;20461;-78
2022/02/24 09:52:16;;;;;;;9.73;2.72;;;10.70;99.90;;;;;;5086406;28;20391;-79
2022/02/24 09:54:42;;;;;;;9.75;2.65;;;10.70;99.90;;;;;;5089953;28;20020;-79
2022/02/24 09:57:07;;;;;;;10.13;3.08;;;10.70;99.90;;;;;;5083004;28;20472;-79
2022/02/24 09:59:33;;;;;;;10.00;2.85;;;10.70;99.90;;;;;;5088483;28;20101;-79
2022/02/24 10:02:00;;;;;;;13.80;2.33;;;10.80;99.90;;;;;;5091325;28;20476;-79
2022/02/24 10:04:26;;;;;;;10.55;2.25;;;10.80;99.90;;;;;;5088154;28;20070;-79
2022/02/24 10:06:52;;;;;;;11.02;2.20;;;10.70;99.90;;;;;;5089536;28;20500;-79
2022/02/24 10:09:33;;;;;;;8.70;2.58;;;10.90;99.90;;;;;;5091069;28;20034;-80
2022/02/24 10:12:07;;;;;;;12.98;2.65;;;11.00;99.90;;;;;;5086146;28;20547;-80
2022/02/24 10:14:34;;;;;;;13.88;2.58;;;11.10;99.90;;;;;;5087095;28;20070;-80
2022/02/24 10:17:05;;;;;;;9.55;2.65;;;11.20;99.90;;;;;;5088752;28;20024;-80
2022/02/24 10:19:45;;;;;;;11.30;2.28;;;11.20;99.90;;;;;;5086881;28;20383;-78
2022/02/24 10:22:14;;;;;;;8.38;2.05;;;11.20;99.90;;;;;;5084380;28;20541;-79
2022/02/24 10:24:42;;;;;;;8.35;2.13;;;11.10;99.90;;;;;;5088666;28;20418;-78
2022/02/24 10:27:26;;;;;;;4.70;1.83;;;11.10;99.90;;;;;;5084592;28;20387;-79
2022/02/24 10:30:06;;;;;;;8.18;1.83;;;11.10;99.90;;;;;;5089766;28;20096;-78
2022/02/24 10:32:45;;;;;;;9.82;2.28;;;11.10;99.90;;;;;;5086929;28;20032;-78
2022/02/24 10:35:19;;;;;;;8.77;2.05;;;11.30;99.90;;;;;;5087148;28;20020;-78
2022/02/24 10:38:03;;;;;;;9.75;2.65;;;11.30;99.90;;;;;;5084843;28;20058;-78
2022/02/24 10:40:39;;;;;;;7.45;2.15;;;11.20;99.90;;;;;;5089244;28;20103;-78
2022/02/24 10:43:22;;;;;;;7.50;2.38;;;11.30;99.90;;;;;;5088234;28;20130;-79
2022/02/24 10:45:59;;;;;;;6.47;1.63;;;11.30;99.90;;;;;;5083901;28;20415;-78
2022/02/24 10:48:26;;;;;;;8.48;1.67;;;11.50;99.90;;;;;;5088565;28;20039;-78
2022/02/24 10:50:57;;;;;;;11.57;2.03;;;11.60;99.90;;;;;;5085842;28;20480;-79
2022/02/24 10:53:26;;;;;;;8.40;2.30;;;11.50;99.90;;;;;;5089181;28;20030;-79
2022/02/24 10:55:52;;;;;;;8.85;1.95;;;11.50;99.90;;;;;;5081265;28;20036;-78
2022/02/24 10:58:17;;;;;;;9.50;2.10;;;11.60;99.90;;;;;;5085946;28;20032;-79
2022/02/24 11:00:43;;;;;;;7.88;2.40;;;11.70;99.90;;;;;;5084177;28;20032;-79
2022/02/24 11:03:09;;;;;;;9.63;2.65;;;11.80;99.90;;;;;;5087028;28;20035;-78
2022/02/24 11:05:37;;;;;;;8.60;2.30;;;11.90;99.90;;;;;;5084498;28;20589;-79
2022/02/24 11:08:05;;;;;;;5.63;1.90;;;12.00;99.90;;;;;;5088952;28;20074;-78
2022/02/24 11:10:31;;;;;;;11.20;2.63;;;12.00;99.90;;;;;;5082730;28;20023;-79
2022/02/24 11:12:57;;;;;;;6.68;1.70;;;12.10;99.90;;;;;;5086439;28;20432;-79
2022/02/24 11:15:24;;;;;;;10.73;2.50;;;12.20;99.90;;;;;;5085127;28;20028;-79
2022/02/24 11:17:50;;;;;;;4.82;1.85;;;12.40;99.90;;;;;;5088664;28;20389;-79
2022/02/24 11:20:16;;;;;;;9.13;2.60;;;12.30;99.90;;;;;;5091463;28;20055;-78
2022/02/24 11:22:42;;;;;;;5.80;2.30;;;12.60;99.90;;;;;;5084381;28;20071;-79
2022/02/24 11:25:12;;;;;;;8.68;2.35;;;12.60;99.90;;;;;;5088885;28;20031;-78
2022/02/24 11:27:44;;;;;;;6.22;2.17;;;12.80;99.90;;;;;;5087475;28;20028;-78
2022/02/24 11:30:17;;;;;;;6.38;2.72;;;12.80;99.90;;;;;;5086118;28;20085;-78
2022/02/24 11:32:45;;;;;;;5.57;2.03;;;12.70;99.90;;;;;;5085355;28;20103;-78
2022/02/24 11:35:13;;;;;;;9.20;3.47;;;12.80;99.90;;;;;;5085109;28;20118;-77
2022/02/24 11:37:44;;;;;;;4.93;2.85;;;12.80;99.90;;;;;;5084956;28;20039;-77
2022/02/24 11:40:27;;;;;;;3.67;2.15;;;12.80;99.90;;;;;;5087777;28;20107;-77
2022/02/24 11:43:05;;;;;;;;;;;12.90;99.90;;;;;;5089695;28;20118;-77
2022/02/24 11:45:36;;;;;;;7.05;3.25;;;12.90;99.90;;;;;;5084223;28;19908;-79
2022/02/24 11:48:12;;;;;;;8.85;4.32;;;13.00;99.90;;;;;;5089397;28;20020;-78
2022/02/24 11:50:40;;;;;;;12.82;5.13;;;13.00;99.90;;;;;;5086006;28;20047;-77
2022/02/24 11:53:09;;;;;;;8.65;3.17;;;13.00;99.90;;;;;;5082884;28;20017;-77
2022/02/24 11:55:40;;;;;;;6.53;2.13;;;12.80;99.90;;;;;;5092445;28;20016;-78
2022/02/24 11:58:41;;;;;;;6.05;2.25;;;12.80;99.90;;;;;;5084246;28;20066;-78
2022/02/24 12:01:09;;;;;;;7.57;2.60;;;12.80;99.90;;;;;;5086426;28;20526;-79
2022/02/24 12:03:58;;;;;;;4.90;2.45;;;12.80;99.90;;;;;;5086997;28;20388;-79
2022/02/24 12:06:41;;;;;;;8.63;2.53;;;12.80;99.90;;;;;;5089485;28;20024;-79
2022/02/24 12:09:16;;;;;;;5.60;2.17;;;12.70;99.90;;;;;;5085542;28;20029;-79
2022/02/24 12:11:46;;;;;;;5.93;2.00;;;12.70;99.90;;;;;;5091122;28;20473;-79
2022/02/24 12:14:21;;;;;;;4.43;1.60;;;12.80;99.90;;;;;;5083529;28;20038;-79
2022/02/24 12:17:08;;;;;;;7.72;1.80;;;12.90;99.90;;;;;;5088883;28;20029;-79
2022/02/24 12:19:51;;;;;;;8.68;2.45;;;13.10;99.90;;;;;;5084927;28;20028;-82
2022/02/24 12:22:36;;;;;;;8.07;1.90;;;13.20;99.90;;;;;;5087561;28;20070;-79
2022/02/24 12:25:21;;;;;;;7.45;2.22;;;13.10;99.90;;;;;;5089989;28;20035;-82
2022/02/24 12:28:07;;;;;;;3.17;1.60;;;13.00;99.90;;;;;;5091581;28;20020;-80
2022/02/24 12:30:37;;;;;;;8.55;2.03;;;13.10;99.90;;;;;;5081736;28;20085;-79
2022/02/24 12:33:11;;;;;;;5.57;1.67;;;13.10;99.90;;;;;;5085173;28;20031;-79
2022/02/24 12:35:39;;;;;;;4.60;2.00;;;13.20;99.90;;;;;;5083824;28;20021;-76
2022/02/24 12:38:06;;;;;;;5.60;1.67;;;13.20;99.90;;;;;;5088274;28;20424;-80
2022/02/24 12:40:44;;;;;;;6.97;1.92;;;13.30;99.90;;;;;;5085863;28;20024;-79
2022/02/24 12:43:12;;;;;;;6.05;2.42;;;13.20;99.90;;;;;;5090009;28;20476;-77
2022/02/24 12:45:39;;;;;;;6.25;2.08;;;13.20;99.90;;;;;;5088143;28;20028;-80
2022/02/24 12:48:07;;;;;;;6.78;1.83;;;13.20;99.90;;;;;;5090790;28;20047;-76